TAIP48 YGLB-YMES
Flight info
| Callsign | TAIP48 |
|---|---|
| Flight time | N/A |
| Altitude | 8000 |
| Route | BUNGO V169 CB/N0111F050 W290 COM/N0112F040 W290 VISER |
| Aircraft | EC35/L-SFG/C |
Departure
| Time | 2026-04-19 21:50 |
|---|---|
| Airport | Goulburn Airport (YGLB) |
Arrival
| Time | N/A |
|---|---|
| Airport | RAAF Base East Sale (YMES) |
| Time | Latitude | Longitude | Altitude | Speed | Heading |
|---|---|---|---|---|---|
| 2026-04-19 21:44 | -34.80880 | 149.73305 | 2098 ft | 0 kts | 246° |
| 2026-04-19 21:49 | -34.80882 | 149.73299 | 2099 ft | 2 kts | 250° |
| 2026-04-19 21:49 | -34.80891 | 149.73248 | 2100 ft | 7 kts | 251° |
| 2026-04-19 21:50 | -34.80919 | 149.73184 | 2104 ft | 10 kts | 217° |
| 2026-04-19 21:50 | -34.80971 | 149.73177 | 2248 ft | 15 kts | 108° |
| 2026-04-19 21:50 | -34.81123 | 149.73358 | 2512 ft | 57 kts | 108° |
| 2026-04-19 21:50 | -34.81411 | 149.73697 | 2990 ft | 57 kts | 91° |
| 2026-04-19 21:51 | -34.81617 | 149.74142 | 3438 ft | 69 kts | 123° |
| 2026-04-19 21:51 | -34.82040 | 149.74454 | 3637 ft | 79 kts | 155° |
| 2026-04-19 21:51 | -34.82534 | 149.74953 | 3806 ft | 106 kts | 128° |
| 2026-04-19 21:51 | -34.83006 | 149.75726 | 3994 ft | 118 kts | 124° |
| 2026-04-19 21:52 | -34.83501 | 149.76523 | 4180 ft | 118 kts | 127° |
| 2026-04-19 21:52 | -34.83998 | 149.77313 | 4358 ft | 117 kts | 127° |
| 2026-04-19 21:52 | -34.84484 | 149.78093 | 4533 ft | 117 kts | 128° |
| 2026-04-19 21:52 | -34.84973 | 149.78877 | 4710 ft | 116 kts | 128° |
| 2026-04-19 21:53 | -34.85466 | 149.79662 | 4887 ft | 116 kts | 129° |
| 2026-04-19 21:53 | -34.85956 | 149.80440 | 5063 ft | 117 kts | 129° |
| 2026-04-19 21:53 | -34.86472 | 149.81253 | 5212 ft | 128 kts | 131° |
| 2026-04-19 21:53 | -34.87057 | 149.82187 | 5325 ft | 145 kts | 129° |
| 2026-04-19 21:54 | -34.87682 | 149.83174 | 5501 ft | 150 kts | 129° |
| 2026-04-19 21:54 | -34.88316 | 149.84181 | 5673 ft | 151 kts | 129° |
| 2026-04-19 21:54 | -34.88976 | 149.85190 | 5845 ft | 153 kts | 136° |
| 2026-04-19 21:54 | -34.89948 | 149.85658 | 6005 ft | 152 kts | 179° |
| 2026-04-19 21:55 | -34.90901 | 149.85158 | 6180 ft | 155 kts | 221° |
| 2026-04-19 21:55 | -34.91341 | 149.83958 | 6172 ft | 161 kts | 257° |
| 2026-04-19 21:55 | -34.91392 | 149.82596 | 5977 ft | 163 kts | 275° |
| 2026-04-19 21:55 | -34.90876 | 149.81364 | 5785 ft | 167 kts | 309° |
| 2026-04-19 21:56 | -34.90070 | 149.80364 | 5577 ft | 165 kts | 313° |
| 2026-04-19 21:56 | -34.89264 | 149.79421 | 5401 ft | 155 kts | 313° |
| 2026-04-19 21:56 | -34.88533 | 149.78569 | 5195 ft | 135 kts | 314° |
| 2026-04-19 21:56 | -34.87816 | 149.77889 | 4983 ft | 128 kts | 332° |
| 2026-04-19 21:57 | -34.87038 | 149.77380 | 4777 ft | 128 kts | 328° |
| 2026-04-19 21:57 | -34.86299 | 149.76784 | 4580 ft | 128 kts | 325° |
| 2026-04-19 21:57 | -34.85554 | 149.76187 | 4378 ft | 127 kts | 327° |
| 2026-04-19 21:57 | -34.84820 | 149.75609 | 4178 ft | 125 kts | 327° |
| 2026-04-19 21:58 | -34.84098 | 149.75038 | 3975 ft | 124 kts | 327° |
| 2026-04-19 21:58 | -34.83373 | 149.74469 | 3814 ft | 120 kts | 330° |
| 2026-04-19 21:58 | -34.82669 | 149.73973 | 3428 ft | 112 kts | 332° |
| 2026-04-19 21:58 | -34.82041 | 149.73524 | 3012 ft | 100 kts | 330° |
| 2026-04-19 21:59 | -34.81479 | 149.73100 | 2652 ft | 90 kts | 334° |
| 2026-04-19 21:59 | -34.80965 | 149.72855 | 2457 ft | 65 kts | 360° |
| 2026-04-19 21:59 | -34.80653 | 149.72980 | 2250 ft | 33 kts | 75° |
| 2026-04-19 21:59 | -34.80690 | 149.73189 | 2141 ft | 18 kts | 105° |
| 2026-04-19 22:00 | -34.80694 | 149.73251 | 2097 ft | 2 kts | 163° |
| 2026-04-19 22:00 | -34.80693 | 149.73250 | 2096 ft | 0 kts | 157° |
| 2026-04-19 22:01 | -34.80699 | 149.73251 | 2098 ft | 5 kts | 148° |
| 2026-04-19 22:02 | -34.80803 | 149.73257 | 2110 ft | 23 kts | 140° |
| 2026-04-19 22:02 | -34.81010 | 149.73341 | 2282 ft | 38 kts | 120° |
| 2026-04-19 22:02 | -34.81256 | 149.73573 | 2482 ft | 52 kts | 111° |
| 2026-04-19 22:02 | -34.81497 | 149.73982 | 2677 ft | 71 kts | 113° |
| 2026-04-19 22:03 | -34.81811 | 149.74582 | 2862 ft | 98 kts | 121° |
| 2026-04-19 22:03 | -34.82263 | 149.75287 | 3071 ft | 111 kts | 126° |
| 2026-04-19 22:03 | -34.82759 | 149.76024 | 3278 ft | 112 kts | 127° |
| 2026-04-19 22:03 | -34.83246 | 149.76753 | 3472 ft | 112 kts | 128° |
| 2026-04-19 22:04 | -34.83741 | 149.77498 | 3671 ft | 113 kts | 129° |
| 2026-04-19 22:04 | -34.84243 | 149.78242 | 3871 ft | 114 kts | 129° |
| 2026-04-19 22:04 | -34.84748 | 149.78986 | 4070 ft | 115 kts | 129° |
| 2026-04-19 22:04 | -34.85260 | 149.79741 | 4272 ft | 115 kts | 129° |
| 2026-04-19 22:05 | -34.85768 | 149.80489 | 4471 ft | 116 kts | 130° |
| 2026-04-19 22:05 | -34.86276 | 149.81245 | 4673 ft | 115 kts | 130° |
| 2026-04-19 22:05 | -34.86784 | 149.82004 | 4875 ft | 114 kts | 130° |
| 2026-04-19 22:05 | -34.87289 | 149.82752 | 5077 ft | 114 kts | 131° |
| 2026-04-19 22:06 | -34.87787 | 149.83495 | 5277 ft | 113 kts | 131° |
| 2026-04-19 22:06 | -34.88275 | 149.84242 | 5476 ft | 113 kts | 131° |
| 2026-04-19 22:06 | -34.88767 | 149.85004 | 5640 ft | 113 kts | 130° |
| 2026-04-19 22:06 | -34.89243 | 149.85756 | 5629 ft | 113 kts | 131° |
| 2026-04-19 22:07 | -34.89723 | 149.86523 | 5629 ft | 112 kts | 131° |
| 2026-04-19 22:07 | -34.90189 | 149.87276 | 5787 ft | 112 kts | 131° |
| 2026-04-19 22:07 | -34.90735 | 149.87921 | 5985 ft | 110 kts | 159° |
| 2026-04-19 22:07 | -34.91465 | 149.87836 | 6186 ft | 110 kts | 208° |
| 2026-04-19 22:08 | -34.91848 | 149.87022 | 6385 ft | 119 kts | 260° |
| 2026-04-19 22:08 | -34.91539 | 149.86069 | 6585 ft | 130 kts | 310° |
| 2026-04-19 22:08 | -34.90766 | 149.85477 | 6785 ft | 131 kts | 323° |
| 2026-04-19 22:08 | -34.90267 | 149.84615 | 6984 ft | 124 kts | 279° |
| 2026-04-19 22:09 | -34.90272 | 149.83603 | 7181 ft | 116 kts | 246° |
| 2026-04-19 22:09 | -34.90731 | 149.82842 | 7384 ft | 111 kts | 223° |
| 2026-04-19 22:09 | -34.91213 | 149.82092 | 7581 ft | 112 kts | 229° |
| 2026-04-19 22:09 | -34.91670 | 149.81316 | 7779 ft | 113 kts | 229° |
| 2026-04-19 22:10 | -34.92130 | 149.80545 | 7922 ft | 113 kts | 227° |
| 2026-04-19 22:10 | -34.92592 | 149.79771 | 7960 ft | 116 kts | 230° |
| 2026-04-19 22:10 | -34.93127 | 149.78889 | 7972 ft | 140 kts | 229° |
| 2026-04-19 22:10 | -34.93731 | 149.77895 | 7989 ft | 151 kts | 229° |
| 2026-04-19 22:11 | -34.94359 | 149.76828 | 8005 ft | 157 kts | 230° |
| 2026-04-19 22:11 | -34.95014 | 149.75731 | 7980 ft | 162 kts | 230° |
| 2026-04-19 22:11 | -34.95690 | 149.74593 | 7909 ft | 168 kts | 230° |
| 2026-04-19 22:11 | -34.96374 | 149.73442 | 7928 ft | 166 kts | 230° |
| 2026-04-19 22:12 | -34.97031 | 149.72336 | 7999 ft | 154 kts | 229° |
| 2026-04-19 22:12 | -34.97636 | 149.71303 | 8014 ft | 146 kts | 230° |
| 2026-04-19 22:12 | -34.98226 | 149.70306 | 8021 ft | 145 kts | 230° |
| 2026-04-19 22:12 | -34.98823 | 149.69305 | 8027 ft | 146 kts | 230° |
| 2026-04-19 22:13 | -34.99421 | 149.68298 | 8031 ft | 146 kts | 229° |
| 2026-04-19 22:13 | -35.00018 | 149.67290 | 8033 ft | 146 kts | 229° |
| 2026-04-19 22:13 | -35.00292 | 149.66829 | 8030 ft | 146 kts | 229° |
| 2026-04-19 22:13 | -35.00890 | 149.65823 | 8031 ft | 146 kts | 230° |
| 2026-04-19 22:14 | -35.01483 | 149.64818 | 8031 ft | 145 kts | 230° |
| 2026-04-19 22:14 | -35.02078 | 149.63815 | 8031 ft | 145 kts | 230° |
| 2026-04-19 22:14 | -35.02674 | 149.62808 | 8031 ft | 146 kts | 230° |
| 2026-04-19 22:14 | -35.03271 | 149.61798 | 8032 ft | 146 kts | 230° |
| 2026-04-19 22:15 | -35.03867 | 149.60792 | 8007 ft | 146 kts | 229° |
| 2026-04-19 22:15 | -35.04461 | 149.59786 | 7974 ft | 146 kts | 230° |
| 2026-04-19 22:15 | -35.05049 | 149.58794 | 7961 ft | 145 kts | 230° |
| 2026-04-19 22:15 | -35.05647 | 149.57781 | 7945 ft | 147 kts | 230° |
| 2026-04-19 22:16 | -35.06261 | 149.56746 | 7946 ft | 153 kts | 230° |
| 2026-04-19 22:16 | -35.06898 | 149.55672 | 7933 ft | 159 kts | 230° |
| 2026-04-19 22:16 | -35.07554 | 149.54561 | 7936 ft | 162 kts | 230° |
| 2026-04-19 22:16 | -35.08210 | 149.53447 | 7950 ft | 161 kts | 230° |
| 2026-04-19 22:17 | -35.08866 | 149.52339 | 7957 ft | 162 kts | 230° |
| 2026-04-19 22:17 | -35.09527 | 149.51216 | 7961 ft | 163 kts | 230° |
| 2026-04-19 22:17 | -35.10194 | 149.50084 | 7957 ft | 164 kts | 230° |
| 2026-04-19 22:17 | -35.10844 | 149.48946 | 7963 ft | 163 kts | 230° |
| 2026-04-19 22:18 | -35.11504 | 149.47835 | 7964 ft | 162 kts | 230° |
| 2026-04-19 22:18 | -35.12167 | 149.46707 | 7965 ft | 163 kts | 230° |
| 2026-04-19 22:18 | -35.12827 | 149.45586 | 7966 ft | 163 kts | 230° |
| 2026-04-19 22:18 | -35.13487 | 149.44466 | 7967 ft | 163 kts | 230° |
| 2026-04-19 22:19 | -35.14153 | 149.43333 | 7968 ft | 162 kts | 230° |
| 2026-04-19 22:19 | -35.14814 | 149.42212 | 7967 ft | 163 kts | 230° |
| 2026-04-19 22:19 | -35.15473 | 149.41092 | 7968 ft | 163 kts | 230° |
| 2026-04-19 22:19 | -35.16135 | 149.39970 | 7981 ft | 159 kts | 230° |
| 2026-04-19 22:20 | -35.16766 | 149.38890 | 7971 ft | 155 kts | 230° |
| 2026-04-19 22:20 | -35.17401 | 149.37810 | 7967 ft | 155 kts | 230° |
| 2026-04-19 22:20 | -35.18032 | 149.36740 | 7968 ft | 155 kts | 230° |
| 2026-04-19 22:20 | -35.18660 | 149.35669 | 7969 ft | 156 kts | 230° |
| 2026-04-19 22:21 | -35.19298 | 149.34586 | 7965 ft | 156 kts | 231° |
| 2026-04-19 22:21 | -35.19936 | 149.33507 | 7971 ft | 156 kts | 230° |
| 2026-04-19 22:21 | -35.20559 | 149.32443 | 7969 ft | 155 kts | 231° |
| 2026-04-19 22:21 | -35.21190 | 149.31367 | 7967 ft | 155 kts | 231° |
| 2026-04-19 22:22 | -35.21822 | 149.30293 | 7967 ft | 156 kts | 231° |
| 2026-04-19 22:22 | -35.22456 | 149.29211 | 7968 ft | 156 kts | 230° |
| 2026-04-19 22:22 | -35.23092 | 149.28128 | 7968 ft | 156 kts | 230° |
| 2026-04-19 22:22 | -35.23723 | 149.27052 | 7968 ft | 156 kts | 230° |
| 2026-04-19 22:23 | -35.24353 | 149.25974 | 7967 ft | 156 kts | 230° |
| 2026-04-19 22:23 | -35.24984 | 149.24898 | 7967 ft | 156 kts | 230° |
| 2026-04-19 22:23 | -35.25614 | 149.23820 | 7965 ft | 156 kts | 230° |
| 2026-04-19 22:23 | -35.26246 | 149.22742 | 7964 ft | 156 kts | 231° |
| 2026-04-19 22:24 | -35.26880 | 149.21660 | 7965 ft | 156 kts | 230° |
| 2026-04-19 22:24 | -35.27506 | 149.20589 | 7964 ft | 156 kts | 231° |
| 2026-04-19 22:24 | -35.28220 | 149.19606 | 7956 ft | 154 kts | 211° |
| 2026-04-19 22:24 | -35.29232 | 149.19292 | 7978 ft | 151 kts | 183° |
| 2026-04-19 22:25 | -35.30281 | 149.19124 | 7967 ft | 151 kts | 192° |
| 2026-04-19 22:25 | -35.31316 | 149.18867 | 7965 ft | 151 kts | 189° |
| 2026-04-19 22:25 | -35.32346 | 149.18654 | 7966 ft | 151 kts | 190° |
| 2026-04-19 22:25 | -35.33388 | 149.18420 | 7966 ft | 151 kts | 190° |
| 2026-04-19 22:26 | -35.34427 | 149.18195 | 7966 ft | 151 kts | 190° |
| 2026-04-19 22:26 | -35.35464 | 149.17967 | 7967 ft | 151 kts | 190° |
| 2026-04-19 22:26 | -35.36512 | 149.17737 | 7967 ft | 151 kts | 190° |
| 2026-04-19 22:26 | -35.37544 | 149.17511 | 7967 ft | 151 kts | 190° |
| 2026-04-19 22:27 | -35.38590 | 149.17279 | 8004 ft | 152 kts | 190° |
| 2026-04-19 22:27 | -35.39637 | 149.17052 | 8042 ft | 153 kts | 190° |
| 2026-04-19 22:27 | -35.40693 | 149.16818 | 8058 ft | 153 kts | 190° |
| 2026-04-19 22:27 | -35.41736 | 149.16589 | 8065 ft | 153 kts | 190° |
| 2026-04-19 22:28 | -35.42791 | 149.16356 | 8067 ft | 152 kts | 190° |
| 2026-04-19 22:28 | -35.43832 | 149.16128 | 8068 ft | 152 kts | 190° |
| 2026-04-19 22:28 | -35.44886 | 149.15897 | 8069 ft | 153 kts | 190° |
| 2026-04-19 22:28 | -35.45925 | 149.15668 | 8070 ft | 153 kts | 190° |
| 2026-04-19 22:29 | -35.46980 | 149.15436 | 8071 ft | 152 kts | 190° |
| 2026-04-19 22:29 | -35.48024 | 149.15207 | 8071 ft | 152 kts | 190° |
| 2026-04-19 22:29 | -35.49080 | 149.14975 | 8071 ft | 152 kts | 190° |
| 2026-04-19 22:29 | -35.50118 | 149.14745 | 8072 ft | 152 kts | 190° |
| 2026-04-19 22:30 | -35.51154 | 149.14517 | 8071 ft | 151 kts | 190° |
| 2026-04-19 22:30 | -35.52202 | 149.14287 | 8065 ft | 151 kts | 190° |
| 2026-04-19 22:30 | -35.53234 | 149.14059 | 8068 ft | 151 kts | 190° |
| 2026-04-19 22:30 | -35.54281 | 149.13827 | 8076 ft | 151 kts | 190° |
| 2026-04-19 22:31 | -35.55328 | 149.13597 | 8086 ft | 151 kts | 190° |
| 2026-04-19 22:31 | -35.56362 | 149.13368 | 8103 ft | 151 kts | 190° |
| 2026-04-19 22:31 | -35.57409 | 149.13139 | 8111 ft | 152 kts | 190° |
| 2026-04-19 22:31 | -35.58446 | 149.12909 | 8116 ft | 151 kts | 190° |
| 2026-04-19 22:32 | -35.59486 | 149.12680 | 8119 ft | 151 kts | 190° |
| 2026-04-19 22:32 | -35.60537 | 149.12447 | 8121 ft | 151 kts | 190° |
| 2026-04-19 22:32 | -35.61586 | 149.12216 | 8124 ft | 151 kts | 190° |
| 2026-04-19 22:32 | -35.62628 | 149.11984 | 8126 ft | 151 kts | 190° |
| 2026-04-19 22:33 | -35.63663 | 149.11757 | 8128 ft | 152 kts | 190° |
| 2026-04-19 22:33 | -35.64704 | 149.11526 | 8130 ft | 151 kts | 190° |
| 2026-04-19 22:33 | -35.65745 | 149.11295 | 8133 ft | 151 kts | 190° |
| 2026-04-19 22:33 | -35.66785 | 149.11066 | 8136 ft | 151 kts | 190° |
| 2026-04-19 22:34 | -35.67838 | 149.10832 | 8137 ft | 151 kts | 190° |
| 2026-04-19 22:34 | -35.68874 | 149.10603 | 8138 ft | 151 kts | 190° |
| 2026-04-19 22:34 | -35.69910 | 149.10375 | 8139 ft | 151 kts | 190° |
| 2026-04-19 22:34 | -35.70953 | 149.10144 | 8139 ft | 151 kts | 190° |
| 2026-04-19 22:35 | -35.71988 | 149.09915 | 8140 ft | 151 kts | 190° |
| 2026-04-19 22:35 | -35.73028 | 149.09683 | 8140 ft | 151 kts | 190° |
| 2026-04-19 22:35 | -35.74083 | 149.09451 | 8141 ft | 151 kts | 190° |
| 2026-04-19 22:35 | -35.75109 | 149.09222 | 8141 ft | 152 kts | 190° |
| 2026-04-19 22:36 | -35.76150 | 149.08992 | 8140 ft | 152 kts | 190° |
| 2026-04-19 22:36 | -35.77193 | 149.08760 | 8134 ft | 152 kts | 190° |
| 2026-04-19 22:36 | -35.78255 | 149.08525 | 8131 ft | 154 kts | 190° |
| 2026-04-19 22:36 | -35.79317 | 149.08290 | 8132 ft | 156 kts | 190° |
| 2026-04-19 22:37 | -35.80392 | 149.08052 | 8132 ft | 157 kts | 190° |
| 2026-04-19 22:37 | -35.81478 | 149.07809 | 8136 ft | 158 kts | 190° |
| 2026-04-19 22:37 | -35.82567 | 149.07570 | 8138 ft | 158 kts | 190° |
| 2026-04-19 22:37 | -35.83656 | 149.07326 | 8138 ft | 158 kts | 190° |
| 2026-04-19 22:38 | -35.84742 | 149.07085 | 8137 ft | 158 kts | 190° |
| 2026-04-19 22:38 | -35.85813 | 149.06847 | 8137 ft | 158 kts | 190° |
| 2026-04-19 22:38 | -35.86900 | 149.06606 | 8137 ft | 158 kts | 190° |
| 2026-04-19 22:38 | -35.87986 | 149.06364 | 8138 ft | 158 kts | 190° |
| 2026-04-19 22:39 | -35.89072 | 149.06122 | 8137 ft | 158 kts | 190° |
| 2026-04-19 22:39 | -35.90166 | 149.05879 | 8137 ft | 158 kts | 190° |
| 2026-04-19 22:39 | -35.91248 | 149.05638 | 8137 ft | 158 kts | 190° |
| 2026-04-19 22:39 | -35.92332 | 149.05396 | 8137 ft | 158 kts | 190° |
| 2026-04-19 22:40 | -35.93420 | 149.05154 | 8137 ft | 158 kts | 190° |
| 2026-04-19 22:40 | -35.94492 | 149.04915 | 8138 ft | 158 kts | 190° |
| 2026-04-19 22:40 | -35.95576 | 149.04674 | 8138 ft | 158 kts | 190° |
| 2026-04-19 22:40 | -35.96659 | 149.04433 | 8138 ft | 158 kts | 190° |
| 2026-04-19 22:41 | -35.97749 | 149.04187 | 8138 ft | 158 kts | 190° |
| 2026-04-19 22:41 | -35.98837 | 149.03947 | 8139 ft | 158 kts | 190° |
| 2026-04-19 22:41 | -35.99912 | 149.03705 | 8138 ft | 158 kts | 190° |
| 2026-04-19 22:41 | -36.01012 | 149.03462 | 8139 ft | 158 kts | 190° |
| 2026-04-19 22:42 | -36.02088 | 149.03221 | 8140 ft | 158 kts | 190° |
| 2026-04-19 22:42 | -36.03175 | 149.02979 | 8148 ft | 158 kts | 190° |
| 2026-04-19 22:42 | -36.04257 | 149.02737 | 8150 ft | 157 kts | 190° |
| 2026-04-19 22:42 | -36.05337 | 149.02496 | 8147 ft | 157 kts | 190° |
| 2026-04-19 22:43 | -36.06413 | 149.02254 | 8142 ft | 157 kts | 190° |
| 2026-04-19 22:43 | -36.07490 | 149.02016 | 8129 ft | 157 kts | 190° |
| 2026-04-19 22:43 | -36.08568 | 149.01772 | 8122 ft | 157 kts | 190° |
| 2026-04-19 22:43 | -36.09654 | 149.01531 | 8119 ft | 157 kts | 190° |
| 2026-04-19 22:44 | -36.10743 | 149.01282 | 8116 ft | 159 kts | 190° |
| 2026-04-19 22:44 | -36.11834 | 149.01035 | 8118 ft | 158 kts | 189° |
| 2026-04-19 22:44 | -36.12912 | 149.00795 | 8114 ft | 157 kts | 191° |
| 2026-04-19 22:44 | -36.13997 | 149.00549 | 8112 ft | 157 kts | 190° |
| 2026-04-19 22:45 | -36.15071 | 149.00311 | 8111 ft | 158 kts | 190° |
| 2026-04-19 22:45 | -36.16155 | 149.00067 | 8110 ft | 158 kts | 190° |
| 2026-04-19 22:45 | -36.17244 | 148.99824 | 8109 ft | 158 kts | 190° |
| 2026-04-19 22:45 | -36.18316 | 148.99580 | 8108 ft | 158 kts | 190° |
| 2026-04-19 22:46 | -36.19406 | 148.99339 | 8107 ft | 157 kts | 190° |
| 2026-04-19 22:46 | -36.20495 | 148.99094 | 8105 ft | 157 kts | 190° |
| 2026-04-19 22:46 | -36.21576 | 148.98853 | 8104 ft | 158 kts | 190° |
| 2026-04-19 22:46 | -36.22665 | 148.98605 | 8102 ft | 158 kts | 190° |
| 2026-04-19 22:47 | -36.23740 | 148.98366 | 8101 ft | 158 kts | 190° |
| 2026-04-19 22:47 | -36.24831 | 148.98120 | 8100 ft | 158 kts | 190° |
| 2026-04-19 22:47 | -36.25923 | 148.97875 | 8099 ft | 158 kts | 190° |
| 2026-04-19 22:47 | -36.27001 | 148.97635 | 8098 ft | 158 kts | 190° |
| 2026-04-19 22:48 | -36.28094 | 148.97388 | 8098 ft | 158 kts | 190° |
| 2026-04-19 22:48 | -36.29171 | 148.97145 | 8098 ft | 158 kts | 190° |
| 2026-04-19 22:48 | -36.30262 | 148.96899 | 8097 ft | 158 kts | 190° |
| 2026-04-19 22:48 | -36.31356 | 148.96654 | 8097 ft | 158 kts | 190° |
| 2026-04-19 22:49 | -36.32440 | 148.96410 | 8097 ft | 158 kts | 190° |
| 2026-04-19 22:49 | -36.33531 | 148.96164 | 8097 ft | 158 kts | 190° |
| 2026-04-19 22:49 | -36.34619 | 148.95920 | 8096 ft | 158 kts | 190° |
| 2026-04-19 22:49 | -36.35668 | 148.95488 | 8093 ft | 160 kts | 208° |
| 2026-04-19 22:50 | -36.36510 | 148.94595 | 8099 ft | 159 kts | 220° |
| 2026-04-19 22:50 | -36.37368 | 148.93721 | 8096 ft | 159 kts | 216° |
| 2026-04-19 22:50 | -36.38234 | 148.92859 | 8095 ft | 159 kts | 217° |
| 2026-04-19 22:50 | -36.39098 | 148.91988 | 8096 ft | 160 kts | 217° |
| 2026-04-19 22:51 | -36.39965 | 148.91118 | 8096 ft | 160 kts | 217° |
| 2026-04-19 22:51 | -36.41700 | 148.89377 | 8096 ft | 160 kts | 217° |
| 2026-04-19 22:51 | -36.42554 | 148.88518 | 8096 ft | 160 kts | 217° |
| 2026-04-19 22:52 | -36.43430 | 148.87637 | 8095 ft | 160 kts | 217° |
| 2026-04-19 22:52 | -36.44290 | 148.86772 | 8095 ft | 160 kts | 217° |
| 2026-04-19 22:52 | -36.45156 | 148.85902 | 8096 ft | 160 kts | 217° |
| 2026-04-19 22:52 | -36.46024 | 148.85028 | 8094 ft | 160 kts | 217° |
| 2026-04-19 22:53 | -36.46890 | 148.84158 | 8094 ft | 160 kts | 217° |
| 2026-04-19 22:53 | -36.47763 | 148.83278 | 8094 ft | 160 kts | 217° |
| 2026-04-19 22:53 | -36.48632 | 148.82405 | 8093 ft | 160 kts | 217° |
| 2026-04-19 22:53 | -36.49499 | 148.81529 | 8093 ft | 160 kts | 217° |
| 2026-04-19 22:54 | -36.50361 | 148.80661 | 8093 ft | 160 kts | 217° |
| 2026-04-19 22:54 | -36.51232 | 148.79784 | 8092 ft | 160 kts | 217° |
| 2026-04-19 22:54 | -36.52102 | 148.78908 | 8091 ft | 160 kts | 217° |
| 2026-04-19 22:54 | -36.52964 | 148.78038 | 8091 ft | 161 kts | 217° |
| 2026-04-19 22:55 | -36.53836 | 148.77159 | 8090 ft | 161 kts | 217° |
| 2026-04-19 22:55 | -36.54711 | 148.76276 | 8090 ft | 161 kts | 217° |
| 2026-04-19 22:55 | -36.55582 | 148.75398 | 8089 ft | 161 kts | 217° |
| 2026-04-19 22:55 | -36.56453 | 148.74518 | 8088 ft | 161 kts | 217° |
| 2026-04-19 22:56 | -36.57320 | 148.73644 | 8088 ft | 161 kts | 217° |
| 2026-04-19 22:56 | -36.58195 | 148.72759 | 8087 ft | 161 kts | 217° |
| 2026-04-19 22:56 | -36.59056 | 148.71887 | 8086 ft | 161 kts | 217° |
| 2026-04-19 22:56 | -36.59933 | 148.71002 | 8086 ft | 161 kts | 217° |
| 2026-04-19 22:57 | -36.60796 | 148.70129 | 8085 ft | 161 kts | 217° |
| 2026-04-19 22:57 | -36.61674 | 148.69241 | 8084 ft | 161 kts | 217° |
| 2026-04-19 22:57 | -36.62540 | 148.68365 | 8084 ft | 161 kts | 217° |
| 2026-04-19 22:57 | -36.63417 | 148.67477 | 8083 ft | 161 kts | 217° |
| 2026-04-19 22:58 | -36.64283 | 148.66602 | 8083 ft | 161 kts | 217° |
| 2026-04-19 22:58 | -36.65157 | 148.65715 | 8082 ft | 161 kts | 218° |
| 2026-04-19 22:58 | -36.66025 | 148.64838 | 8082 ft | 161 kts | 217° |
| 2026-04-19 22:58 | -36.66902 | 148.63948 | 8082 ft | 161 kts | 217° |
| 2026-04-19 22:59 | -36.67777 | 148.63062 | 8082 ft | 161 kts | 217° |
| 2026-04-19 22:59 | -36.68640 | 148.62186 | 8082 ft | 161 kts | 217° |
| 2026-04-19 22:59 | -36.69520 | 148.61295 | 8034 ft | 161 kts | 217° |
| 2026-04-19 22:59 | -36.70386 | 148.60416 | 8004 ft | 161 kts | 218° |
| 2026-04-19 23:00 | -36.71260 | 148.59529 | 7991 ft | 161 kts | 218° |
| 2026-04-19 23:00 | -36.72138 | 148.58638 | 7986 ft | 161 kts | 218° |
| 2026-04-19 23:00 | -36.73004 | 148.57759 | 7984 ft | 161 kts | 218° |
| 2026-04-19 23:00 | -36.73881 | 148.56868 | 7984 ft | 161 kts | 218° |
| 2026-04-19 23:01 | -36.74751 | 148.55983 | 7984 ft | 161 kts | 218° |
| 2026-04-19 23:01 | -36.75624 | 148.55098 | 7982 ft | 161 kts | 218° |
| 2026-04-19 23:01 | -36.76490 | 148.54216 | 7981 ft | 161 kts | 218° |
| 2026-04-19 23:01 | -36.77365 | 148.53326 | 7981 ft | 161 kts | 218° |
| 2026-04-19 23:02 | -36.78235 | 148.52441 | 7981 ft | 161 kts | 218° |
| 2026-04-19 23:02 | -36.79108 | 148.51553 | 7981 ft | 161 kts | 218° |
| 2026-04-19 23:02 | -36.79971 | 148.50674 | 7980 ft | 162 kts | 218° |
| 2026-04-19 23:02 | -36.80847 | 148.49783 | 7980 ft | 162 kts | 218° |
| 2026-04-19 23:03 | -36.81721 | 148.48892 | 7977 ft | 162 kts | 218° |
| 2026-04-19 23:03 | -36.82592 | 148.48004 | 7975 ft | 162 kts | 218° |
| 2026-04-19 23:03 | -36.83469 | 148.47111 | 7974 ft | 162 kts | 218° |
| 2026-04-19 23:03 | -36.84345 | 148.46217 | 7973 ft | 162 kts | 218° |
| 2026-04-19 23:04 | -36.85215 | 148.45331 | 7975 ft | 162 kts | 218° |
| 2026-04-19 23:04 | -36.86086 | 148.44444 | 7977 ft | 162 kts | 218° |
| 2026-04-19 23:04 | -36.86972 | 148.43544 | 7976 ft | 163 kts | 218° |
| 2026-04-19 23:04 | -36.87848 | 148.42656 | 7975 ft | 164 kts | 218° |
| 2026-04-19 23:05 | -36.88738 | 148.41750 | 7971 ft | 164 kts | 219° |
| 2026-04-19 23:05 | -36.89628 | 148.40842 | 7968 ft | 164 kts | 219° |
| 2026-04-19 23:05 | -36.90506 | 148.39944 | 7966 ft | 164 kts | 219° |
| 2026-04-19 23:05 | -36.91398 | 148.39032 | 7965 ft | 164 kts | 219° |
| 2026-04-19 23:06 | -36.92274 | 148.38136 | 7964 ft | 164 kts | 219° |
| 2026-04-19 23:06 | -36.93155 | 148.37234 | 7965 ft | 164 kts | 219° |
| 2026-04-19 23:06 | -36.94047 | 148.36324 | 7965 ft | 164 kts | 219° |
| 2026-04-19 23:06 | -36.94927 | 148.35423 | 7965 ft | 164 kts | 219° |
| 2026-04-19 23:07 | -36.95811 | 148.34521 | 7965 ft | 164 kts | 219° |
| 2026-04-19 23:07 | -36.96707 | 148.33614 | 7968 ft | 164 kts | 219° |
| 2026-04-19 23:07 | -36.97584 | 148.32713 | 7967 ft | 163 kts | 219° |
| 2026-04-19 23:07 | -36.98461 | 148.31816 | 7966 ft | 163 kts | 219° |
| 2026-04-19 23:08 | -36.99351 | 148.30905 | 7967 ft | 164 kts | 219° |
| 2026-04-19 23:08 | -37.00229 | 148.30006 | 7968 ft | 164 kts | 219° |
| 2026-04-19 23:08 | -37.01117 | 148.29094 | 7968 ft | 164 kts | 219° |
| 2026-04-19 23:08 | -37.02004 | 148.28185 | 7968 ft | 164 kts | 219° |
| 2026-04-19 23:09 | -37.02875 | 148.27290 | 7968 ft | 164 kts | 219° |
| 2026-04-19 23:09 | -37.03762 | 148.26381 | 7968 ft | 164 kts | 219° |
| 2026-04-19 23:09 | -37.04646 | 148.25473 | 7969 ft | 164 kts | 219° |
| 2026-04-19 23:09 | -37.05521 | 148.24574 | 7967 ft | 164 kts | 219° |
| 2026-04-19 23:10 | -37.06405 | 148.23666 | 7966 ft | 164 kts | 219° |
| 2026-04-19 23:10 | -37.07293 | 148.22751 | 7966 ft | 164 kts | 219° |
| 2026-04-19 23:10 | -37.08178 | 148.21843 | 7965 ft | 164 kts | 219° |
| 2026-04-19 23:10 | -37.09056 | 148.20940 | 7965 ft | 164 kts | 219° |
| 2026-04-19 23:11 | -37.09940 | 148.20030 | 7965 ft | 164 kts | 219° |
| 2026-04-19 23:11 | -37.10823 | 148.19101 | 7966 ft | 165 kts | 220° |
| 2026-04-19 23:11 | -37.11705 | 148.18196 | 7967 ft | 163 kts | 219° |
| 2026-04-19 23:11 | -37.12581 | 148.17290 | 7965 ft | 163 kts | 220° |
| 2026-04-19 23:12 | -37.13457 | 148.16388 | 7964 ft | 164 kts | 219° |
| 2026-04-19 23:12 | -37.14336 | 148.15482 | 7966 ft | 164 kts | 219° |
| 2026-04-19 23:12 | -37.15227 | 148.14561 | 7966 ft | 164 kts | 219° |
| 2026-04-19 23:12 | -37.16103 | 148.13658 | 7966 ft | 164 kts | 219° |
| 2026-04-19 23:13 | -37.16981 | 148.12753 | 7965 ft | 164 kts | 219° |
| 2026-04-19 23:13 | -37.17866 | 148.11839 | 7965 ft | 164 kts | 219° |
| 2026-04-19 23:13 | -37.18742 | 148.10934 | 7965 ft | 164 kts | 219° |
| 2026-04-19 23:13 | -37.19633 | 148.10016 | 7966 ft | 164 kts | 219° |
| 2026-04-19 23:14 | -37.20509 | 148.09111 | 7966 ft | 164 kts | 219° |
| 2026-04-19 23:14 | -37.21390 | 148.08192 | 7966 ft | 162 kts | 219° |
| 2026-04-19 23:14 | -37.22252 | 148.07294 | 7963 ft | 160 kts | 218° |
| 2026-04-19 23:14 | -37.23102 | 148.06407 | 7959 ft | 158 kts | 218° |
| 2026-04-19 23:15 | -37.23941 | 148.05531 | 7953 ft | 156 kts | 217° |
| 2026-04-19 23:15 | -37.24782 | 148.04660 | 7946 ft | 155 kts | 217° |
| 2026-04-19 23:15 | -37.25612 | 148.03801 | 7941 ft | 155 kts | 217° |
| 2026-04-19 23:15 | -37.26442 | 148.02943 | 7938 ft | 155 kts | 217° |
| 2026-04-19 23:16 | -37.27283 | 148.02072 | 7939 ft | 156 kts | 217° |
| 2026-04-19 23:16 | -37.28114 | 148.01211 | 7940 ft | 156 kts | 217° |
| 2026-04-19 23:16 | -37.28959 | 148.00339 | 7941 ft | 156 kts | 217° |
| 2026-04-19 23:16 | -37.29793 | 147.99472 | 7941 ft | 156 kts | 217° |
| 2026-04-19 23:17 | -37.30631 | 147.98605 | 7942 ft | 156 kts | 217° |
| 2026-04-19 23:17 | -37.31476 | 147.97729 | 7942 ft | 157 kts | 217° |
| 2026-04-19 23:17 | -37.32317 | 147.96858 | 7943 ft | 157 kts | 217° |
| 2026-04-19 23:17 | -37.33165 | 147.95979 | 7944 ft | 157 kts | 217° |
| 2026-04-19 23:18 | -37.34005 | 147.95110 | 7945 ft | 157 kts | 217° |
| 2026-04-19 23:18 | -37.34857 | 147.94225 | 7946 ft | 157 kts | 217° |
| 2026-04-19 23:18 | -37.35706 | 147.93343 | 7947 ft | 157 kts | 217° |
| 2026-04-19 23:18 | -37.36557 | 147.92459 | 7947 ft | 157 kts | 217° |
| 2026-04-19 23:19 | -37.37392 | 147.91591 | 7948 ft | 157 kts | 217° |
| 2026-04-19 23:19 | -37.38241 | 147.90710 | 7950 ft | 157 kts | 217° |
| 2026-04-19 23:19 | -37.39088 | 147.89828 | 7950 ft | 157 kts | 217° |
| 2026-04-19 23:19 | -37.39925 | 147.88959 | 7950 ft | 157 kts | 217° |
| 2026-04-19 23:20 | -37.40771 | 147.88078 | 7951 ft | 157 kts | 217° |
| 2026-04-19 23:20 | -37.41619 | 147.87196 | 7950 ft | 157 kts | 217° |
| 2026-04-19 23:20 | -37.42467 | 147.86314 | 7951 ft | 157 kts | 217° |
| 2026-04-19 23:20 | -37.43309 | 147.85437 | 7951 ft | 157 kts | 217° |
| 2026-04-19 23:21 | -37.44157 | 147.84552 | 7951 ft | 157 kts | 217° |
| 2026-04-19 23:21 | -37.44995 | 147.83681 | 7951 ft | 157 kts | 217° |
| 2026-04-19 23:21 | -37.45835 | 147.82794 | 7950 ft | 157 kts | 219° |
| 2026-04-19 23:21 | -37.46632 | 147.81825 | 7792 ft | 158 kts | 223° |
| 2026-04-19 23:22 | -37.47382 | 147.80829 | 7624 ft | 157 kts | 223° |
| 2026-04-19 23:22 | -37.48146 | 147.79846 | 7449 ft | 156 kts | 223° |
| 2026-04-19 23:22 | -37.48904 | 147.78863 | 7275 ft | 155 kts | 223° |
| 2026-04-19 23:22 | -37.49661 | 147.77885 | 7100 ft | 155 kts | 223° |
| 2026-04-19 23:23 | -37.50406 | 147.76920 | 6928 ft | 154 kts | 223° |
| 2026-04-19 23:23 | -37.51157 | 147.75948 | 6753 ft | 154 kts | 223° |
| 2026-04-19 23:23 | -37.51910 | 147.74976 | 6578 ft | 154 kts | 223° |
| 2026-04-19 23:23 | -37.52655 | 147.74010 | 6404 ft | 154 kts | 223° |
| 2026-04-19 23:24 | -37.53411 | 147.73032 | 6228 ft | 154 kts | 223° |
| 2026-04-19 23:24 | -37.54150 | 147.72073 | 6055 ft | 154 kts | 223° |
| 2026-04-19 23:24 | -37.54896 | 147.71106 | 5880 ft | 154 kts | 224° |
| 2026-04-19 23:24 | -37.55643 | 147.70137 | 5703 ft | 153 kts | 224° |
| 2026-04-19 23:25 | -37.56388 | 147.69170 | 5526 ft | 153 kts | 224° |
| 2026-04-19 23:25 | -37.57128 | 147.68210 | 5350 ft | 153 kts | 224° |
| 2026-04-19 23:25 | -37.57874 | 147.67241 | 5173 ft | 153 kts | 224° |
| 2026-04-19 23:25 | -37.58620 | 147.66272 | 4996 ft | 153 kts | 224° |
| 2026-04-19 23:26 | -37.59363 | 147.65308 | 4821 ft | 153 kts | 224° |
| 2026-04-19 23:26 | -37.60107 | 147.64340 | 4644 ft | 153 kts | 224° |
| 2026-04-19 23:26 | -37.60850 | 147.63373 | 4533 ft | 154 kts | 225° |
| 2026-04-19 23:26 | -37.61599 | 147.62398 | 4486 ft | 155 kts | 224° |
| 2026-04-19 23:27 | -37.62350 | 147.61423 | 4467 ft | 156 kts | 224° |
| 2026-04-19 23:27 | -37.63105 | 147.60437 | 4461 ft | 156 kts | 224° |
| 2026-04-19 23:27 | -37.63860 | 147.59453 | 4458 ft | 156 kts | 224° |
| 2026-04-19 23:27 | -37.64617 | 147.58464 | 4461 ft | 156 kts | 224° |
| 2026-04-19 23:28 | -37.65386 | 147.57461 | 4474 ft | 157 kts | 224° |
| 2026-04-19 23:28 | -37.66138 | 147.56482 | 4481 ft | 157 kts | 224° |
| 2026-04-19 23:28 | -37.66897 | 147.55493 | 4484 ft | 157 kts | 224° |
| 2026-04-19 23:28 | -37.67661 | 147.54497 | 4485 ft | 157 kts | 224° |
| 2026-04-19 23:29 | -37.68422 | 147.53505 | 4486 ft | 157 kts | 224° |
| 2026-04-19 23:29 | -37.69182 | 147.52513 | 4488 ft | 157 kts | 224° |
| 2026-04-19 23:29 | -37.69940 | 147.51524 | 4489 ft | 157 kts | 224° |
| 2026-04-19 23:29 | -37.70701 | 147.50531 | 4490 ft | 157 kts | 224° |
| 2026-04-19 23:30 | -37.71457 | 147.49542 | 4491 ft | 156 kts | 224° |
| 2026-04-19 23:30 | -37.72216 | 147.48550 | 4491 ft | 156 kts | 224° |
| 2026-04-19 23:30 | -37.72969 | 147.47565 | 4492 ft | 157 kts | 224° |
| 2026-04-19 23:30 | -37.73733 | 147.46565 | 4492 ft | 157 kts | 224° |
| 2026-04-19 23:31 | -37.74486 | 147.45579 | 4493 ft | 157 kts | 224° |
| 2026-04-19 23:31 | -37.75251 | 147.44580 | 4493 ft | 157 kts | 224° |
| 2026-04-19 23:31 | -37.76005 | 147.43591 | 4492 ft | 157 kts | 224° |
| 2026-04-19 23:31 | -37.76760 | 147.42603 | 4491 ft | 157 kts | 224° |
| 2026-04-19 23:32 | -37.77518 | 147.41611 | 4491 ft | 157 kts | 224° |
| 2026-04-19 23:32 | -37.78276 | 147.40617 | 4490 ft | 157 kts | 224° |
| 2026-04-19 23:32 | -37.79030 | 147.39629 | 4490 ft | 157 kts | 224° |
| 2026-04-19 23:32 | -37.79796 | 147.38625 | 4490 ft | 157 kts | 224° |
| 2026-04-19 23:33 | -37.80550 | 147.37634 | 4489 ft | 157 kts | 224° |
| 2026-04-19 23:33 | -37.81307 | 147.36641 | 4489 ft | 157 kts | 224° |
| 2026-04-19 23:33 | -37.82062 | 147.35649 | 4489 ft | 157 kts | 224° |
| 2026-04-19 23:33 | -37.82826 | 147.34644 | 4485 ft | 157 kts | 226° |
| 2026-04-19 23:34 | -37.83579 | 147.33629 | 4491 ft | 157 kts | 225° |
| 2026-04-19 23:34 | -37.84337 | 147.32642 | 4489 ft | 156 kts | 225° |
| 2026-04-19 23:34 | -37.85088 | 147.31653 | 4488 ft | 156 kts | 225° |
| 2026-04-19 23:34 | -37.85851 | 147.30649 | 4488 ft | 157 kts | 225° |
| 2026-04-19 23:35 | -37.86605 | 147.29657 | 4488 ft | 157 kts | 225° |
| 2026-04-19 23:35 | -37.87358 | 147.28667 | 4489 ft | 157 kts | 225° |
| 2026-04-19 23:35 | -37.88122 | 147.27660 | 4488 ft | 157 kts | 225° |
| 2026-04-19 23:35 | -37.88876 | 147.26668 | 4488 ft | 157 kts | 225° |
| 2026-04-19 23:36 | -37.89630 | 147.25673 | 4488 ft | 157 kts | 225° |
| 2026-04-19 23:36 | -37.90388 | 147.24674 | 4489 ft | 157 kts | 225° |
| 2026-04-19 23:36 | -37.91151 | 147.23668 | 4489 ft | 157 kts | 225° |
| 2026-04-19 23:36 | -37.91907 | 147.22670 | 4490 ft | 157 kts | 225° |
| 2026-04-19 23:37 | -37.92662 | 147.21675 | 4490 ft | 157 kts | 225° |
| 2026-04-19 23:37 | -37.93415 | 147.20680 | 4490 ft | 157 kts | 225° |
| 2026-04-19 23:37 | -37.94310 | 147.19930 | 4406 ft | 156 kts | 191° |
| 2026-04-19 23:37 | -37.95325 | 147.20227 | 4233 ft | 153 kts | 142° |
| 2026-04-19 23:38 | -37.95795 | 147.21396 | 4052 ft | 156 kts | 94° |
| 2026-04-19 23:38 | -37.95402 | 147.22646 | 3874 ft | 159 kts | 45° |
| 2026-04-19 23:38 | -37.94380 | 147.23175 | 3700 ft | 159 kts | 11° |
| 2026-04-19 23:38 | -37.93306 | 147.23506 | 3516 ft | 159 kts | 16° |
| 2026-04-19 23:39 | -37.92238 | 147.23860 | 3424 ft | 158 kts | 17° |
| 2026-04-19 23:39 | -37.91169 | 147.24188 | 3616 ft | 158 kts | 14° |
| 2026-04-19 23:39 | -37.90069 | 147.24104 | 3788 ft | 164 kts | 340° |
| 2026-04-19 23:39 | -37.89259 | 147.23126 | 3990 ft | 163 kts | 296° |
| 2026-04-19 23:40 | -37.89189 | 147.21738 | 4203 ft | 161 kts | 252° |
| 2026-04-19 23:40 | -37.89847 | 147.20793 | 4373 ft | 134 kts | 199° |
| 2026-04-19 23:40 | -37.90723 | 147.20708 | 4418 ft | 124 kts | 187° |
| 2026-04-19 23:40 | -37.91563 | 147.20432 | 4465 ft | 125 kts | 196° |
| 2026-04-19 23:41 | -37.92401 | 147.20100 | 4483 ft | 126 kts | 197° |
| 2026-04-19 23:41 | -37.93256 | 147.19913 | 4489 ft | 125 kts | 172° |
| 2026-04-19 23:41 | -37.94087 | 147.20213 | 4488 ft | 123 kts | 162° |
| 2026-04-19 23:41 | -37.94849 | 147.20728 | 4487 ft | 125 kts | 136° |